Time;durP1;ratioP1;P1;durP2;ratioP2;P2;SDS_P1;SDS_P2;PMS_P1;PMS_P2;Temp;Humidity;BMP_temperature;BMP_pressure;BME280_temperature;BME280_humidity;BME280_pressure;Samples;Min_cycle;Max_cycle;Signal;HPM_P1;HPM_P2
2022/01/25 00:08:23;;;;;;;45.07;22.33;;;4.60;99.90;;;;;;5053575;28;20191;-45
2022/01/25 00:15:12;;;;;;;38.73;20.90;;;4.60;99.90;;;;;;5035604;28;20222;-46
2022/01/25 00:26:05;;;;;;;48.97;23.13;;;4.50;99.90;;;;;;5061758;28;20218;-48
2022/01/25 00:28:45;;;;;;;46.37;22.93;;;4.60;99.90;;;;;;5060753;28;20218;-45
2022/01/25 00:31:13;;;;;;;45.00;22.33;;;4.50;99.90;;;;;;5038079;28;20210;-44
2022/01/25 00:33:43;;;;;;;47.33;23.73;;;4.60;99.90;;;;;;5044090;28;20257;-48
2022/01/25 00:36:12;;;;;;;49.00;23.00;;;4.50;99.90;;;;;;5040321;28;20584;-50
2022/01/25 00:38:40;;;;;;;49.47;24.10;;;4.60;99.90;;;;;;5042597;28;20660;-47
2022/01/25 00:41:07;;;;;;;53.03;25.43;;;4.60;99.90;;;;;;5047936;28;20203;-45
2022/01/25 00:43:33;;;;;;;43.17;24.07;;;4.50;99.90;;;;;;5052164;28;20474;-44
2022/01/25 00:46:05;;;;;;;46.83;23.90;;;4.60;99.90;;;;;;5033690;28;20219;-48
2022/01/25 00:48:42;;;;;;;46.47;23.37;;;4.50;99.90;;;;;;5047790;28;20191;-50
2022/01/25 00:51:47;;;;;;;50.33;22.97;;;4.50;99.90;;;;;;5040463;28;20218;-49
2022/01/25 00:54:16;;;;;;;47.13;23.30;;;4.50;99.90;;;;;;5040431;28;20290;-49
2022/01/25 00:56:45;;;;;;;56.70;26.87;;;4.50;99.90;;;;;;5055958;28;20226;-50
2022/01/25 00:59:14;;;;;;;47.83;24.27;;;4.50;99.90;;;;;;5059326;28;20666;-47
2022/01/25 01:01:41;;;;;;;49.20;26.03;;;4.50;99.90;;;;;;5044583;28;20278;-46
2022/01/25 01:04:10;;;;;;;52.17;25.00;;;4.50;99.90;;;;;;5045251;28;20222;-49
2022/01/25 01:06:41;;;;;;;54.67;25.27;;;4.50;99.90;;;;;;5041825;28;20219;-47
2022/01/25 01:09:09;;;;;;;60.23;26.50;;;4.50;99.90;;;;;;5041111;28;20938;-45
2022/01/25 01:11:41;;;;;;;49.73;24.57;;;4.50;99.90;;;;;;5048370;28;20295;-45
2022/01/25 01:14:16;;;;;;;54.37;25.37;;;4.50;99.90;;;;;;5043890;28;20737;-50
2022/01/25 01:17:00;;;;;;;54.57;24.37;;;4.50;99.90;;;;;;5038691;28;20301;-48
2022/01/25 01:30:39;;;;;;;57.73;28.13;;;4.50;99.90;;;;;;5059356;28;20199;-46
2022/01/25 01:33:31;;;;;;;61.60;27.30;;;4.50;99.90;;;;;;5041364;28;20215;-50
2022/01/25 01:44:37;;;;;;;62.37;28.30;;;4.50;99.90;;;;;;5010289;28;20948;-48
2022/01/25 01:47:11;;;;;;;65.13;26.70;;;4.50;99.90;;;;;;5040027;28;20210;-45
2022/01/25 01:49:42;;;;;;;61.00;25.73;;;4.50;99.90;;;;;;5046197;28;20196;-47
2022/01/25 01:52:11;;;;;;;60.77;28.27;;;4.50;99.90;;;;;;5049110;28;20223;-45
2022/01/25 01:54:40;;;;;;;63.67;29.37;;;4.50;99.90;;;;;;5045545;28;20225;-49
2022/01/25 01:57:08;;;;;;;66.63;29.87;;;4.50;99.90;;;;;;5044046;28;20199;-47
2022/01/25 01:59:35;;;;;;;63.53;27.97;;;4.50;99.90;;;;;;5044498;28;20420;-47
2022/01/25 02:02:02;;;;;;;63.90;28.77;;;4.50;99.90;;;;;;5045204;28;20274;-51
2022/01/25 02:04:29;;;;;;;64.67;29.73;;;4.50;99.90;;;;;;5037728;28;20187;-45
2022/01/25 02:06:57;;;;;;;69.90;31.00;;;4.50;99.90;;;;;;5051577;28;20223;-45
2022/01/25 02:09:24;;;;;;;70.60;30.53;;;4.50;99.90;;;;;;5042612;28;20222;-46
2022/01/25 02:11:52;;;;;;;70.20;29.60;;;4.50;99.90;;;;;;5052120;28;20214;-49
2022/01/25 02:14:19;;;;;;;64.80;28.83;;;4.50;99.90;;;;;;5052257;28;20280;-48
2022/01/25 02:17:02;;;;;;;67.43;28.90;;;4.50;99.90;;;;;;5045446;28;20630;-49
2022/01/25 02:22:29;;;;;;;70.43;29.30;;;4.50;99.90;;;;;;5049236;28;20211;-44
2022/01/25 02:24:57;;;;;;;71.30;29.97;;;4.50;99.90;;;;;;5045670;28;20208;-48
2022/01/25 02:27:24;;;;;;;77.63;31.87;;;4.50;99.90;;;;;;5041684;28;20920;-47
2022/01/25 02:29:51;;;;;;;72.53;30.40;;;4.50;99.90;;;;;;5045584;28;20200;-50
2022/01/25 02:32:18;;;;;;;72.53;29.60;;;4.50;99.90;;;;;;5044116;28;20219;-48
2022/01/25 02:34:46;;;;;;;75.00;30.73;;;4.50;99.90;;;;;;5039482;28;20701;-48
2022/01/25 02:37:14;;;;;;;65.93;29.60;;;4.50;99.90;;;;;;5052021;28;20203;-48
2022/01/25 02:39:44;;;;;;;73.27;29.90;;;4.50;99.90;;;;;;5046532;28;20207;-45
2022/01/25 02:42:12;;;;;;;74.20;30.53;;;4.50;99.90;;;;;;5047563;28;20195;-47
2022/01/25 02:44:41;;;;;;;73.73;31.30;;;4.50;99.90;;;;;;5046315;28;20202;-46
2022/01/25 02:49:53;;;;;;;75.30;31.10;;;4.50;99.90;;;;;;5040129;28;20632;-48
2022/01/25 02:52:21;;;;;;;73.93;30.53;;;4.50;99.90;;;;;;5047486;28;21008;-46
2022/01/25 02:54:50;;;;;;;70.33;30.60;;;4.50;99.90;;;;;;5044988;28;20321;-48
2022/01/25 02:57:17;;;;;;;77.87;32.30;;;4.50;99.90;;;;;;5040783;28;20192;-45
2022/01/25 02:59:44;;;;;;;66.87;30.90;;;4.50;99.90;;;;;;5045100;28;20282;-48
2022/01/25 03:02:12;;;;;;;78.87;32.73;;;4.40;99.90;;;;;;5040821;28;20210;-45
2022/01/25 03:04:39;;;;;;;75.13;31.40;;;4.40;99.90;;;;;;5044882;28;20195;-45
2022/01/25 03:07:07;;;;;;;75.37;31.50;;;4.40;99.90;;;;;;5037657;28;20213;-45
2022/01/25 03:09:34;;;;;;;72.40;31.03;;;4.40;99.90;;;;;;5047545;28;20218;-45
2022/01/25 03:12:05;;;;;;;79.63;31.90;;;4.50;99.90;;;;;;5049178;28;20219;-44
2022/01/25 03:14:34;;;;;;;77.40;31.17;;;4.40;99.90;;;;;;5051191;28;20195;-46
2022/01/25 03:17:11;;;;;;;68.80;30.87;;;4.40;99.90;;;;;;5042217;28;20234;-47
2022/01/25 03:19:48;;;;;;;73.20;31.60;;;4.40;99.90;;;;;;5044828;28;20215;-50
2022/01/25 03:22:18;;;;;;;70.47;31.10;;;4.40;99.90;;;;;;5040285;28;20191;-49
2022/01/25 03:24:46;;;;;;;67.00;28.77;;;4.30;99.90;;;;;;5046888;28;20256;-46
2022/01/25 03:27:15;;;;;;;77.23;33.20;;;4.40;99.90;;;;;;5040061;28;20207;-48
2022/01/25 03:29:42;;;;;;;71.27;31.20;;;4.30;99.90;;;;;;5044438;28;20260;-49
2022/01/25 03:32:09;;;;;;;77.37;31.07;;;4.40;99.90;;;;;;5040668;28;20211;-49
2022/01/25 03:34:36;;;;;;;71.93;28.97;;;4.40;99.90;;;;;;5044629;28;20200;-47
2022/01/25 03:37:03;;;;;;;69.00;30.53;;;4.30;99.90;;;;;;5033118;28;20211;-47
2022/01/25 03:39:30;;;;;;;75.60;32.07;;;4.40;99.90;;;;;;5052025;28;20190;-45
2022/01/25 03:41:57;;;;;;;73.33;32.50;;;4.40;99.90;;;;;;5050388;28;20214;-49
2022/01/25 03:44:25;;;;;;;74.80;31.27;;;4.40;99.90;;;;;;5047799;28;20198;-49
2022/01/25 03:47:02;;;;;;;81.07;33.33;;;4.40;99.90;;;;;;5043764;28;20230;-50
2022/01/25 03:49:49;;;;;;;77.03;33.40;;;4.40;99.90;;;;;;5055947;28;20855;-48
2022/01/25 03:52:19;;;;;;;79.33;32.67;;;4.30;99.90;;;;;;5029544;28;20643;-48
2022/01/25 03:54:48;;;;;;;77.87;31.90;;;4.30;99.90;;;;;;5051407;28;21143;-48
2022/01/25 03:57:15;;;;;;;75.47;32.07;;;4.30;99.90;;;;;;5046863;28;20203;-49
2022/01/25 03:59:43;;;;;;;77.87;32.40;;;4.30;99.90;;;;;;5048845;28;20564;-46
2022/01/25 04:02:11;;;;;;;86.77;33.20;;;4.40;99.90;;;;;;5039969;28;20195;-45
2022/01/25 04:04:38;;;;;;;73.60;31.43;;;4.30;99.90;;;;;;5043476;28;20195;-50
2022/01/25 04:07:09;;;;;;;79.53;33.67;;;4.40;99.90;;;;;;5040982;28;20200;-48
2022/01/25 04:09:36;;;;;;;75.50;32.10;;;4.30;99.90;;;;;;5034547;28;20571;-45
2022/01/25 04:12:04;;;;;;;76.63;32.50;;;4.30;99.90;;;;;;5050297;28;20191;-48
2022/01/25 04:14:31;;;;;;;76.20;33.27;;;4.40;99.90;;;;;;5042301;28;20423;-48
2022/01/25 04:17:03;;;;;;;76.10;31.73;;;4.30;99.90;;;;;;5042174;28;20215;-46
2022/01/25 04:19:37;;;;;;;81.70;34.27;;;4.30;99.90;;;;;;5042111;28;20222;-43
2022/01/25 04:25:13;;;;;;;80.10;32.97;;;4.30;99.90;;;;;;5041726;28;20582;-47
2022/01/25 04:27:40;;;;;;;78.47;31.63;;;4.30;99.90;;;;;;5046806;28;20298;-45
2022/01/25 04:30:08;;;;;;;80.43;33.43;;;4.30;99.90;;;;;;5040575;28;20199;-48
2022/01/25 04:32:43;;;;;;;79.27;32.63;;;4.30;99.90;;;;;;5043064;28;20212;-47
2022/01/25 04:35:24;;;;;;;73.97;30.90;;;4.30;99.90;;;;;;5039743;28;20219;-48
2022/01/25 04:49:01;;;;;;;67.67;31.10;;;4.30;99.90;;;;;;5045902;28;20230;-45
2022/01/25 04:51:46;;;;;;;79.70;32.80;;;4.30;99.90;;;;;;5041335;28;20195;-48
2022/01/25 04:54:21;;;;;;;71.17;32.47;;;4.30;99.90;;;;;;5051263;28;20221;-47
2022/01/25 04:56:56;;;;;;;86.50;33.63;;;4.20;99.90;;;;;;5029106;28;20221;-50
2022/01/25 04:59:29;;;;;;;74.47;32.17;;;4.30;99.90;;;;;;5044239;28;20205;-49
2022/01/25 05:02:02;;;;;;;81.00;32.80;;;4.30;99.90;;;;;;5043049;28;20262;-48
2022/01/25 05:04:35;;;;;;;79.80;34.07;;;4.20;99.90;;;;;;5040688;28;20195;-48
2022/01/25 05:07:13;;;;;;;81.63;34.37;;;4.30;99.90;;;;;;5046580;28;20223;-47
2022/01/25 05:09:42;;;;;;;79.37;33.80;;;4.30;99.90;;;;;;5043717;28;20198;-47
2022/01/25 05:12:11;;;;;;;78.60;32.37;;;4.30;99.90;;;;;;5037670;28;20211;-50
2022/01/25 05:14:48;;;;;;;76.33;32.53;;;4.30;99.90;;;;;;5048672;28;20331;-47
2022/01/25 05:17:18;;;;;;;73.60;32.37;;;4.30;99.90;;;;;;5041718;28;20566;-45
2022/01/25 05:22:34;;;;;;;85.60;33.47;;;4.30;99.90;;;;;;5049073;28;20279;-48
2022/01/25 05:25:01;;;;;;;80.70;33.33;;;4.30;99.90;;;;;;5061575;28;20226;-47
2022/01/25 05:27:30;;;;;;;77.00;31.20;;;4.30;99.90;;;;;;5039704;28;20698;-46
2022/01/25 05:29:57;;;;;;;76.77;33.27;;;4.30;99.90;;;;;;5053506;28;20206;-44
2022/01/25 05:32:24;;;;;;;84.60;34.73;;;4.30;99.90;;;;;;5046024;28;20203;-46
2022/01/25 05:34:52;;;;;;;70.00;31.10;;;4.30;99.90;;;;;;5048084;28;20195;-44
2022/01/25 05:37:19;;;;;;;71.17;31.07;;;4.30;99.90;;;;;;5041332;28;20199;-48
2022/01/25 05:39:47;;;;;;;80.40;32.53;;;4.30;99.90;;;;;;5050859;28;20188;-50
2022/01/25 05:42:23;;;;;;;76.63;32.73;;;4.30;99.90;;;;;;5034848;28;20214;-45
2022/01/25 05:45:12;;;;;;;83.07;33.63;;;4.30;99.90;;;;;;5051400;28;20194;-50
2022/01/25 05:47:41;;;;;;;71.50;31.53;;;4.30;99.90;;;;;;5049349;28;20237;-49
2022/01/25 05:50:09;;;;;;;77.00;33.80;;;4.30;99.90;;;;;;5053658;28;20198;-48
2022/01/25 05:52:36;;;;;;;76.40;31.43;;;4.30;99.90;;;;;;5043332;28;20199;-44
2022/01/25 05:55:03;;;;;;;76.13;32.40;;;4.30;99.90;;;;;;5057088;28;20214;-45
2022/01/25 05:57:30;;;;;;;75.87;32.17;;;4.30;99.90;;;;;;5053648;28;20198;-45
2022/01/25 05:59:57;;;;;;;82.67;34.67;;;4.30;99.90;;;;;;5036408;28;20668;-45
2022/01/25 06:02:27;;;;;;;74.03;30.37;;;4.30;99.90;;;;;;5045969;28;20202;-48
2022/01/25 06:04:54;;;;;;;77.10;32.07;;;4.30;99.90;;;;;;5056896;28;20191;-45
2022/01/25 06:07:22;;;;;;;71.77;31.60;;;4.30;99.90;;;;;;5034691;28;20222;-48
2022/01/25 06:09:49;;;;;;;76.83;31.47;;;4.30;99.90;;;;;;5052337;28;20282;-44
2022/01/25 06:12:15;;;;;;;74.63;33.07;;;4.30;99.90;;;;;;5056687;28;20724;-45
2022/01/25 06:14:42;;;;;;;83.27;33.30;;;4.30;99.90;;;;;;5038865;28;23663;-47
2022/01/25 06:17:09;;;;;;;71.43;32.13;;;4.30;99.90;;;;;;5044679;28;20243;-44
2022/01/25 06:19:36;;;;;;;75.00;32.53;;;4.30;99.90;;;;;;5044654;28;20202;-45
2022/01/25 06:22:03;;;;;;;78.73;33.57;;;4.30;99.90;;;;;;5054179;28;20195;-44
2022/01/25 06:24:32;;;;;;;80.83;33.80;;;4.30;99.90;;;;;;5042495;28;20205;-46
2022/01/25 06:26:59;;;;;;;72.77;31.00;;;4.30;99.90;;;;;;5047132;28;20237;-44
2022/01/25 06:29:26;;;;;;;75.57;33.03;;;4.30;99.90;;;;;;5026913;28;21015;-45
2022/01/25 06:31:53;;;;;;;76.07;32.43;;;4.40;99.90;;;;;;5044231;28;20660;-44
2022/01/25 06:34:19;;;;;;;77.50;33.57;;;4.40;99.90;;;;;;5040685;28;20230;-49
2022/01/25 06:36:47;;;;;;;74.20;31.93;;;4.40;99.90;;;;;;5048951;28;20225;-49
2022/01/25 06:39:14;;;;;;;78.90;33.13;;;4.40;99.90;;;;;;5045541;28;20226;-48
2022/01/25 06:41:42;;;;;;;76.50;31.63;;;4.40;99.90;;;;;;5055072;28;20182;-48
2022/01/25 06:44:08;;;;;;;69.33;30.73;;;4.40;99.90;;;;;;5046527;28;20655;-49
2022/01/25 06:46:36;;;;;;;76.13;31.50;;;4.40;99.90;;;;;;5042893;28;20226;-46
2022/01/25 06:49:25;;;;;;;78.80;32.50;;;4.40;99.90;;;;;;5035907;28;20222;-48
2022/01/25 06:51:52;;;;;;;82.97;32.13;;;4.40;99.90;;;;;;5054351;28;20199;-50
2022/01/25 06:54:19;;;;;;;75.53;31.67;;;4.40;99.90;;;;;;5051237;28;20222;-46
2022/01/25 06:56:46;;;;;;;69.10;31.07;;;4.40;99.90;;;;;;5056422;28;20214;-50
2022/01/25 06:59:13;;;;;;;73.53;31.63;;;4.40;99.90;;;;;;5043575;28;20226;-48
2022/01/25 07:01:40;;;;;;;79.13;32.73;;;4.40;99.90;;;;;;5035614;28;20202;-46
2022/01/25 07:04:07;;;;;;;68.83;31.43;;;4.40;99.90;;;;;;5049734;28;20187;-48
2022/01/25 07:06:33;;;;;;;84.80;32.57;;;4.40;99.90;;;;;;5042374;28;20231;-51
2022/01/25 07:09:02;;;;;;;70.30;29.53;;;4.40;99.90;;;;;;5048117;28;20182;-48
2022/01/25 07:11:29;;;;;;;71.40;32.23;;;4.40;99.90;;;;;;5047430;28;20213;-49
2022/01/25 07:13:58;;;;;;;77.00;32.47;;;4.40;99.90;;;;;;5052261;28;20207;-50
2022/01/25 07:16:25;;;;;;;70.63;30.80;;;4.40;99.90;;;;;;5042272;28;20379;-49
2022/01/25 07:18:52;;;;;;;73.27;31.77;;;4.40;99.90;;;;;;5050806;28;20206;-48
2022/01/25 07:21:19;;;;;;;78.87;30.87;;;4.40;99.90;;;;;;5047228;28;20371;-45
2022/01/25 07:23:46;;;;;;;74.53;34.00;;;4.40;99.90;;;;;;5041285;28;20196;-47
2022/01/25 07:26:12;;;;;;;75.87;32.47;;;4.40;99.90;;;;;;5041773;28;20449;-47
2022/01/25 07:28:39;;;;;;;77.70;32.70;;;4.40;99.90;;;;;;5043998;28;20207;-48
2022/01/25 07:31:07;;;;;;;81.30;33.30;;;4.40;99.90;;;;;;5040641;28;20195;-46
2022/01/25 07:33:34;;;;;;;72.30;33.37;;;4.50;99.90;;;;;;5046604;28;20231;-50
2022/01/25 07:36:00;;;;;;;73.50;32.17;;;4.50;99.90;;;;;;5045416;28;20211;-47
2022/01/25 07:38:27;;;;;;;70.37;31.17;;;4.50;99.90;;;;;;5050757;28;20199;-46
2022/01/25 07:40:54;;;;;;;77.90;32.47;;;4.50;99.90;;;;;;5048390;28;20196;-46
2022/01/25 07:43:21;;;;;;;75.93;32.30;;;4.50;99.90;;;;;;5047021;28;20277;-47
2022/01/25 07:45:51;;;;;;;68.33;30.37;;;4.50;99.90;;;;;;5044005;28;20230;-50
2022/01/25 07:48:21;;;;;;;79.73;33.80;;;4.50;99.90;;;;;;5040837;28;20203;-49
2022/01/25 07:50:49;;;;;;;73.63;31.67;;;4.50;99.90;;;;;;5042384;28;20282;-47
2022/01/25 07:53:16;;;;;;;70.63;30.83;;;4.50;99.90;;;;;;5050281;28;20210;-48
2022/01/25 07:55:42;;;;;;;75.00;32.83;;;4.50;99.90;;;;;;5054394;28;20245;-46
2022/01/25 07:58:10;;;;;;;78.93;33.47;;;4.50;99.90;;;;;;5046929;28;20201;-48
2022/01/25 08:00:36;;;;;;;75.17;31.77;;;4.50;99.90;;;;;;5045121;28;20204;-50
2022/01/25 08:03:03;;;;;;;71.90;30.57;;;4.50;99.90;;;;;;5031703;28;20302;-46
2022/01/25 08:05:32;;;;;;;77.10;32.40;;;4.50;99.90;;;;;;5052204;28;20210;-48
2022/01/25 08:08:01;;;;;;;73.10;32.30;;;4.50;99.90;;;;;;5048831;28;20203;-45
2022/01/25 08:10:28;;;;;;;72.57;32.33;;;4.50;99.90;;;;;;5043038;28;20671;-51
2022/01/25 08:12:55;;;;;;;77.63;33.07;;;4.50;99.90;;;;;;5044781;28;20217;-47
2022/01/25 08:15:24;;;;;;;72.53;32.67;;;4.50;99.90;;;;;;5040599;28;20230;-47
2022/01/25 08:17:50;;;;;;;77.87;32.57;;;4.50;99.90;;;;;;5039608;28;20286;-48
2022/01/25 08:20:17;;;;;;;73.17;31.83;;;4.50;99.90;;;;;;5045136;28;20863;-48
2022/01/25 08:22:45;;;;;;;78.90;32.27;;;4.50;99.90;;;;;;5043615;28;20571;-50
2022/01/25 08:25:12;;;;;;;73.67;31.57;;;4.50;99.90;;;;;;5042997;28;20217;-49
2022/01/25 08:27:40;;;;;;;73.53;30.57;;;4.60;99.90;;;;;;5048888;28;20741;-46
2022/01/25 08:30:07;;;;;;;79.33;34.17;;;4.50;99.90;;;;;;5045305;28;20207;-50
2022/01/25 08:32:34;;;;;;;81.60;32.33;;;4.60;99.90;;;;;;5040656;28;20214;-47
2022/01/25 08:35:01;;;;;;;75.50;32.57;;;4.60;99.90;;;;;;5035019;28;20215;-45
2022/01/25 08:37:28;;;;;;;73.27;30.53;;;4.60;99.90;;;;;;5047512;28;20195;-47
2022/01/25 08:39:56;;;;;;;72.27;31.33;;;4.60;99.90;;;;;;5046783;28;20937;-45
2022/01/25 08:42:23;;;;;;;76.33;31.37;;;4.60;99.90;;;;;;5045575;28;20231;-48
2022/01/25 08:44:50;;;;;;;76.37;32.33;;;4.60;99.90;;;;;;5050193;28;20252;-45
2022/01/25 08:47:17;;;;;;;88.80;34.87;;;4.60;99.90;;;;;;5042324;28;20629;-47
2022/01/25 08:49:44;;;;;;;77.80;31.53;;;4.60;99.90;;;;;;5029609;28;20199;-45
2022/01/25 08:52:11;;;;;;;76.27;30.73;;;4.70;99.90;;;;;;5051991;28;20195;-45
2022/01/25 08:54:38;;;;;;;83.07;33.30;;;4.60;99.90;;;;;;5050502;28;20218;-48
2022/01/25 08:57:07;;;;;;;76.50;30.97;;;4.60;99.90;;;;;;5047727;28;20278;-50
2022/01/25 08:59:34;;;;;;;70.90;31.50;;;4.60;99.90;;;;;;5048671;28;20948;-45
2022/01/25 09:02:01;;;;;;;78.97;31.13;;;4.70;99.90;;;;;;5047047;28;20210;-45
2022/01/25 09:04:27;;;;;;;71.27;31.20;;;4.60;99.90;;;;;;5027690;28;20214;-48
2022/01/25 09:06:54;;;;;;;74.67;32.00;;;4.60;99.90;;;;;;5048608;28;20757;-47
2022/01/25 09:09:21;;;;;;;69.17;30.73;;;4.70;99.90;;;;;;5048438;28;20209;-44
2022/01/25 09:11:48;;;;;;;78.83;32.77;;;4.70;99.90;;;;;;5040836;28;20606;-50
2022/01/25 09:14:17;;;;;;;66.10;29.87;;;4.70;99.90;;;;;;5046171;28;20219;-43
2022/01/25 09:16:44;;;;;;;76.80;31.57;;;4.70;99.90;;;;;;5049259;28;20413;-45
2022/01/25 09:19:11;;;;;;;73.73;30.90;;;4.70;99.90;;;;;;5046150;28;20214;-46
2022/01/25 09:21:38;;;;;;;76.50;30.53;;;4.70;99.90;;;;;;5034073;28;20215;-46
2022/01/25 09:24:06;;;;;;;78.83;32.30;;;4.70;99.90;;;;;;5051175;28;20204;-43
2022/01/25 09:26:33;;;;;;;73.43;30.47;;;4.70;99.90;;;;;;5037841;28;20306;-43
2022/01/25 09:29:00;;;;;;;77.40;33.63;;;4.70;99.90;;;;;;5051214;28;20675;-45
2022/01/25 09:31:29;;;;;;;75.97;29.67;;;4.70;99.90;;;;;;5038787;28;20231;-45
2022/01/25 09:33:57;;;;;;;77.63;32.67;;;4.70;99.90;;;;;;5045605;28;20238;-43
2022/01/25 09:36:25;;;;;;;79.23;31.50;;;4.80;99.90;;;;;;5033914;28;20226;-43
2022/01/25 09:38:52;;;;;;;77.33;32.23;;;4.80;99.90;;;;;;5051315;28;20692;-43
2022/01/25 09:41:20;;;;;;;66.77;29.33;;;4.80;99.90;;;;;;5047913;28;20202;-48
2022/01/25 09:43:48;;;;;;;72.57;29.97;;;4.80;99.90;;;;;;5041242;28;20781;-43
2022/01/25 09:46:15;;;;;;;81.93;31.83;;;4.80;99.90;;;;;;5040120;28;20672;-47
2022/01/25 09:48:44;;;;;;;75.93;31.07;;;4.80;99.90;;;;;;5053182;28;20311;-44
2022/01/25 09:51:11;;;;;;;65.93;28.57;;;4.90;99.90;;;;;;5036135;28;20749;-44
2022/01/25 09:53:39;;;;;;;75.83;29.77;;;5.00;99.90;;;;;;5048538;28;20187;-46
2022/01/25 09:56:07;;;;;;;68.87;28.87;;;4.90;99.90;;;;;;5051113;28;20225;-43
2022/01/25 09:58:36;;;;;;;71.03;29.17;;;4.90;99.90;;;;;;5048204;28;20283;-43
2022/01/25 10:01:05;;;;;;;65.13;27.23;;;4.90;99.90;;;;;;5051707;28;20196;-49
2022/01/25 10:03:36;;;;;;;67.53;29.07;;;5.00;99.90;;;;;;5048218;28;20390;-44
2022/01/25 10:06:11;;;;;;;68.47;29.23;;;5.00;99.90;;;;;;5049940;28;20211;-43
2022/01/25 10:08:39;;;;;;;72.47;29.63;;;5.00;99.90;;;;;;5041321;28;20199;-47
2022/01/25 10:11:08;;;;;;;66.33;27.67;;;5.00;99.90;;;;;;5055037;28;20195;-46
2022/01/25 10:13:37;;;;;;;67.90;32.00;;;5.00;99.90;;;;;;5049257;28;20353;-43
2022/01/25 10:16:06;;;;;;;70.13;28.57;;;5.00;99.90;;;;;;5053539;28;20230;-49
2022/01/25 10:18:45;;;;;;;70.87;28.27;;;5.10;99.90;;;;;;5047264;28;20218;-44
2022/01/25 10:21:16;;;;;;;70.10;28.77;;;5.10;99.90;;;;;;5053229;28;20568;-43
2022/01/25 10:24:08;;;;;;;69.17;28.90;;;5.10;99.90;;;;;;5038789;28;20708;-44
2022/01/25 10:26:39;;;;;;;70.37;30.03;;;5.20;99.90;;;;;;5048087;28;20294;-44
2022/01/25 10:29:06;;;;;;;63.93;27.50;;;5.20;99.90;;;;;;5049935;28;20249;-44
2022/01/25 10:31:39;;;;;;;62.63;27.53;;;5.20;99.90;;;;;;5053730;28;20188;-45
2022/01/25 10:34:08;;;;;;;56.70;26.37;;;5.20;99.90;;;;;;5057642;28;20544;-50
2022/01/25 10:36:42;;;;;;;66.17;27.30;;;5.20;99.90;;;;;;5048086;28;20222;-43
2022/01/25 10:39:09;;;;;;;64.90;28.23;;;5.20;99.90;;;;;;5047755;28;20202;-45
2022/01/25 10:41:36;;;;;;;63.47;27.93;;;5.20;99.90;;;;;;5050095;28;20187;-47
2022/01/25 10:44:06;;;;;;;60.07;24.63;;;5.20;99.90;;;;;;5047350;28;20238;-45
2022/01/25 10:46:33;;;;;;;56.60;25.17;;;5.30;99.90;;;;;;5049273;28;20207;-43
2022/01/25 10:49:03;;;;;;;59.93;26.67;;;5.30;99.90;;;;;;5050512;28;20202;-44
2022/01/25 10:51:33;;;;;;;59.80;27.63;;;5.30;99.90;;;;;;5040241;28;20219;-43
2022/01/25 10:54:07;;;;;;;69.83;27.57;;;5.30;99.90;;;;;;5036065;28;20698;-45
2022/01/25 10:56:41;;;;;;;63.47;28.07;;;5.30;99.90;;;;;;5048492;28;20198;-47
2022/01/25 10:59:11;;;;;;;63.27;26.37;;;5.30;99.90;;;;;;5057641;28;20209;-47
2022/01/25 11:01:39;;;;;;;65.57;27.37;;;5.30;99.90;;;;;;5049804;28;20448;-44
2022/01/25 11:04:08;;;;;;;62.30;25.70;;;5.30;99.90;;;;;;5055730;28;20659;-44
2022/01/25 11:06:35;;;;;;;56.67;25.33;;;5.40;99.90;;;;;;5044096;28;20225;-45
2022/01/25 11:09:06;;;;;;;58.97;26.27;;;5.40;99.90;;;;;;5058665;28;20679;-47
2022/01/25 11:11:38;;;;;;;59.90;25.13;;;5.40;99.90;;;;;;5041800;28;20241;-44
2022/01/25 11:16:52;;;;;;;64.03;26.70;;;5.40;99.90;;;;;;5052478;28;20349;-43
2022/01/25 11:19:20;;;;;;;56.63;25.97;;;5.40;99.90;;;;;;5046337;28;20206;-46
2022/01/25 11:21:47;;;;;;;64.60;27.20;;;5.50;99.90;;;;;;5046737;28;20195;-45
2022/01/25 11:24:17;;;;;;;51.00;23.47;;;5.50;99.90;;;;;;5039897;28;20668;-44
2022/01/25 11:26:46;;;;;;;59.93;24.20;;;5.50;99.90;;;;;;5049414;28;20391;-43
2022/01/25 11:29:13;;;;;;;55.87;25.17;;;5.40;99.90;;;;;;5043417;28;20820;-46
2022/01/25 11:31:42;;;;;;;55.67;25.50;;;5.40;99.90;;;;;;5042042;28;20331;-48
2022/01/25 11:34:14;;;;;;;57.67;25.27;;;5.40;99.90;;;;;;5043698;28;20203;-47
2022/01/25 11:36:51;;;;;;;49.37;24.07;;;5.40;99.90;;;;;;5035266;28;20223;-46
2022/01/25 11:39:22;;;;;;;53.40;23.27;;;5.50;99.90;;;;;;5048799;28;20205;-44
2022/01/25 11:41:49;;;;;;;55.17;24.97;;;5.50;99.90;;;;;;5031676;28;20209;-45
2022/01/25 11:44:19;;;;;;;60.83;24.33;;;5.50;99.90;;;;;;5058960;28;20276;-43
2022/01/25 11:46:51;;;;;;;53.03;24.23;;;5.50;99.90;;;;;;5059690;28;20222;-46
2022/01/25 11:49:19;;;;;;;51.43;23.20;;;5.60;99.90;;;;;;5043796;28;20203;-46
2022/01/25 11:51:46;;;;;;;55.50;23.57;;;5.50;99.90;;;;;;5044687;28;20860;-45
2022/01/25 11:54:14;;;;;;;48.17;22.17;;;5.50;99.90;;;;;;5062625;28;20194;-43
2022/01/25 11:56:42;;;;;;;50.07;23.43;;;5.60;99.90;;;;;;5041890;28;20223;-43
2022/01/25 11:59:14;;;;;;;56.47;25.07;;;5.60;99.90;;;;;;5050525;28;20196;-44
2022/01/25 12:01:49;;;;;;;51.50;23.13;;;5.60;99.90;;;;;;5040709;28;20209;-47
2022/01/25 12:04:17;;;;;;;53.87;24.40;;;5.70;99.90;;;;;;5053092;28;20675;-45
2022/01/25 12:06:59;;;;;;;49.07;21.73;;;5.60;99.90;;;;;;5047613;28;20764;-50
2022/01/25 12:09:42;;;;;;;44.77;22.20;;;5.70;99.90;;;;;;5050925;28;20273;-43
2022/01/25 12:12:12;;;;;;;56.30;23.40;;;5.60;99.90;;;;;;5040106;28;20235;-46
2022/01/25 12:14:44;;;;;;;45.13;21.70;;;5.70;99.90;;;;;;5043097;28;20229;-51
2022/01/25 12:17:14;;;;;;;47.10;21.13;;;5.70;99.90;;;;;;5049171;28;20207;-43
2022/01/25 12:19:44;;;;;;;45.57;21.20;;;5.70;99.90;;;;;;5051372;28;20667;-46
2022/01/25 12:22:33;;;;;;;43.70;19.73;;;5.70;99.90;;;;;;5043239;28;20282;-46
2022/01/25 12:25:07;;;;;;;47.60;20.70;;;5.70;99.90;;;;;;5028457;28;20761;-43
2022/01/25 12:27:49;;;;;;;50.10;22.83;;;5.70;99.90;;;;;;5045947;28;20278;-46
2022/01/25 12:30:38;;;;;;;42.73;18.60;;;5.70;99.90;;;;;;5043290;28;20195;-44
2022/01/25 12:33:08;;;;;;;40.23;19.67;;;5.70;99.90;;;;;;5042168;28;20207;-44
2022/01/25 12:35:40;;;;;;;47.60;20.53;;;5.80;99.90;;;;;;5046818;28;20719;-46
2022/01/25 12:38:10;;;;;;;42.70;19.10;;;5.80;99.90;;;;;;5037698;28;20225;-46
2022/01/25 12:40:50;;;;;;;43.67;18.07;;;5.80;99.90;;;;;;5043726;28;20203;-45
2022/01/25 12:43:20;;;;;;;41.57;18.90;;;5.80;99.90;;;;;;5052036;28;20206;-47
2022/01/25 12:45:51;;;;;;;35.50;16.90;;;5.80;99.90;;;;;;5041136;28;20227;-46
2022/01/25 12:48:21;;;;;;;39.73;17.77;;;5.80;99.90;;;;;;5049856;28;20269;-44
2022/01/25 12:50:51;;;;;;;41.03;17.93;;;5.90;99.90;;;;;;5039645;28;20202;-48
2022/01/25 12:53:23;;;;;;;39.63;18.13;;;5.90;99.90;;;;;;5048799;28;20210;-44
2022/01/25 12:55:52;;;;;;;40.47;18.40;;;5.80;99.90;;;;;;5041899;28;20700;-48
2022/01/25 12:58:22;;;;;;;36.43;17.87;;;5.80;99.90;;;;;;5035006;28;20252;-45
2022/01/25 13:00:52;;;;;;;39.23;16.50;;;5.90;99.90;;;;;;5042214;28;20285;-45
2022/01/25 13:03:23;;;;;;;41.27;18.90;;;5.90;99.90;;;;;;5049828;28;20660;-48
2022/01/25 13:05:53;;;;;;;37.60;18.03;;;5.90;99.90;;;;;;5043006;28;20219;-45
2022/01/25 13:08:23;;;;;;;41.57;17.73;;;5.90;99.90;;;;;;5043153;28;20218;-44
2022/01/25 13:10:54;;;;;;;36.10;17.27;;;5.90;99.90;;;;;;5045203;28;20831;-44
2022/01/25 13:13:31;;;;;;;37.03;16.87;;;5.90;99.90;;;;;;5032319;28;20198;-46
2022/01/25 13:15:59;;;;;;;33.37;16.23;;;5.90;99.90;;;;;;5043259;28;20583;-45
2022/01/25 13:18:28;;;;;;;31.80;15.90;;;5.90;99.90;;;;;;5039218;28;20211;-44
2022/01/25 13:21:05;;;;;;;32.53;15.80;;;5.90;99.90;;;;;;5048183;28;20214;-48
2022/01/25 13:23:54;;;;;;;33.10;15.97;;;5.90;99.90;;;;;;5047299;28;20555;-47
2022/01/25 13:26:22;;;;;;;30.77;15.27;;;5.90;99.90;;;;;;5043064;28;20227;-43
2022/01/25 13:28:56;;;;;;;27.90;14.30;;;5.90;99.90;;;;;;5045399;28;20206;-44
2022/01/25 13:31:23;;;;;;;31.83;14.63;;;5.90;99.90;;;;;;5048034;28;20490;-45
2022/01/25 13:33:54;;;;;;;29.40;14.50;;;6.00;99.90;;;;;;5046226;28;20195;-48
2022/01/25 13:36:22;;;;;;;30.10;14.93;;;5.90;99.90;;;;;;5055400;28;20271;-46
2022/01/25 13:38:50;;;;;;;28.20;14.00;;;5.90;99.90;;;;;;5055614;28;20203;-48
2022/01/25 13:41:24;;;;;;;32.10;14.87;;;5.90;99.90;;;;;;5044712;28;20194;-45
2022/01/25 13:46:40;;;;;;;32.57;14.93;;;5.90;99.90;;;;;;5047377;28;20219;-47
2022/01/25 13:49:11;;;;;;;29.77;15.20;;;5.90;99.90;;;;;;5044114;28;20205;-46
2022/01/25 13:51:42;;;;;;;26.73;14.03;;;6.00;99.90;;;;;;5053821;28;20200;-45
2022/01/25 13:54:13;;;;;;;29.33;13.83;;;5.90;99.90;;;;;;5039469;28;20290;-47
2022/01/25 13:56:41;;;;;;;31.17;14.13;;;5.90;99.90;;;;;;5045297;28;20690;-45